createdAt,value
2017-05-28T00:00:37.043Z,101132
2017-05-28T00:03:06.074Z,101132
2017-05-28T00:05:35.158Z,101134
2017-05-28T00:08:10.402Z,101134
2017-05-28T00:13:40.835Z,101138
2017-05-28T00:16:09.870Z,101141
2017-05-28T00:18:38.895Z,101149
2017-05-28T00:21:09.000Z,101148
2017-05-28T00:23:38.024Z,101151
2017-05-28T00:26:07.070Z,101155
2017-05-28T00:28:36.137Z,101146
2017-05-28T00:31:05.187Z,101157
2017-05-28T00:33:34.270Z,101159
2017-05-28T00:36:03.304Z,101154
2017-05-28T00:38:32.324Z,101145
2017-05-28T00:41:01.404Z,101144
2017-05-28T00:43:30.423Z,101152
2017-05-28T00:45:59.460Z,101147
2017-05-28T00:51:12.988Z,101152
2017-05-28T00:53:42.010Z,101155
2017-05-28T00:56:11.064Z,101150
2017-05-28T00:58:40.174Z,101152
2017-05-28T01:01:09.206Z,101148
2017-05-28T01:03:38.237Z,101160
2017-05-28T01:09:08.137Z,101157
2017-05-28T01:11:37.186Z,101151
2017-05-28T01:14:06.208Z,101152
2017-05-28T01:16:35.253Z,101146
2017-05-28T01:19:04.286Z,101153
2017-05-28T01:21:33.385Z,101151
2017-05-28T01:24:02.432Z,101157
2017-05-28T01:26:31.475Z,101155
2017-05-28T01:31:34.639Z,101141
2017-05-28T01:37:05.153Z,101146
2017-05-28T01:39:34.158Z,101136
2017-05-28T01:42:03.175Z,101131
2017-05-28T01:44:32.242Z,101122
2017-05-28T01:47:26.790Z,101116
2017-05-28T01:50:08.401Z,101114
2017-05-28T01:52:37.427Z,101109
2017-05-28T01:55:06.446Z,101111
2017-05-28T01:57:35.526Z,101101
2017-05-28T02:06:06.015Z,101101
2017-05-28T02:08:35.039Z,101099
2017-05-28T02:17:05.835Z,101102
2017-05-28T02:19:34.877Z,101104
2017-05-28T02:22:03.984Z,101104
2017-05-28T02:24:33.031Z,101088
2017-05-28T02:27:02.059Z,101083
2017-05-28T02:32:31.997Z,101088
2017-05-28T02:35:01.026Z,101091
2017-05-28T02:37:30.055Z,101102
2017-05-28T02:40:13.675Z,101105
2017-05-28T02:42:42.687Z,101102
2017-05-28T02:45:11.757Z,101096
2017-05-28T02:47:40.783Z,101104
2017-05-28T02:50:09.838Z,101108
2017-05-28T02:52:38.906Z,101110
2017-05-28T02:58:08.985Z,101106
2017-05-28T03:00:38.014Z,101121
2017-05-28T03:03:07.051Z,101113
2017-05-28T03:05:36.172Z,101109
2017-05-28T03:11:05.957Z,101099
2017-05-28T03:13:34.974Z,101101
2017-05-28T03:16:04.032Z,101105
2017-05-28T03:18:33.055Z,101100
2017-05-28T03:21:08.527Z,101103
2017-05-28T03:26:39.059Z,101103
2017-05-28T03:29:08.072Z,101106
2017-05-28T03:31:37.109Z,101106
2017-05-28T03:34:06.177Z,101113
2017-05-28T03:36:35.234Z,101109
2017-05-28T03:39:10.352Z,101112
2017-05-28T03:41:39.367Z,101111
2017-05-28T03:44:08.393Z,101099
2017-05-28T03:46:37.488Z,101106
2017-05-28T03:49:06.574Z,101099
2017-05-28T03:57:37.507Z,101091
2017-05-28T04:00:06.601Z,101087
2017-05-28T04:02:35.639Z,101096
2017-05-28T04:05:04.753Z,101106
2017-05-28T04:07:33.806Z,101101
2017-05-28T04:10:02.844Z,101102
2017-05-28T04:12:31.934Z,101093
2017-05-28T04:15:00.978Z,101090
2017-05-28T04:17:30.009Z,101099
2017-05-28T04:20:09.525Z,101095
2017-05-28T04:22:38.539Z,101092
2017-05-28T04:25:07.575Z,101086
2017-05-28T04:27:36.634Z,101089
2017-05-28T04:30:05.708Z,101083
2017-05-28T04:32:34.760Z,101087
2017-05-28T04:38:05.138Z,101095
2017-05-28T04:40:34.167Z,101099
2017-05-28T04:43:03.182Z,101095
2017-05-28T04:51:36.032Z,101096
2017-05-28T04:54:05.794Z,101096
2017-05-28T04:56:35.052Z,101095
2017-05-28T04:59:04.123Z,101108
2017-05-28T05:01:33.151Z,101110
2017-05-28T05:04:02.251Z,101108
2017-05-28T05:06:31.290Z,101102
2017-05-28T05:09:00.310Z,101111
2017-05-28T05:11:29.376Z,101114
2017-05-28T05:13:58.414Z,101106
2017-05-28T05:16:27.432Z,101105
2017-05-28T05:18:56.507Z,101108
2017-05-28T05:21:25.547Z,101099
2017-05-28T05:23:54.601Z,101107
2017-05-28T05:26:23.678Z,101111
2017-05-28T05:31:53.880Z,101106
2017-05-28T05:34:22.905Z,101115
2017-05-28T05:36:51.914Z,101109
2017-05-28T05:39:21.011Z,101103
2017-05-28T05:41:50.048Z,101107
2017-05-28T05:44:19.104Z,101113
2017-05-28T05:46:48.170Z,101116
2017-05-28T05:49:17.187Z,101115
2017-05-28T05:51:46.235Z,101113
2017-05-28T05:54:15.291Z,101117
2017-05-28T05:56:44.367Z,101115
2017-05-28T06:02:14.660Z,101125
2017-05-28T06:04:43.695Z,101120
2017-05-28T06:07:12.734Z,101113
2017-05-28T06:12:42.719Z,101103
2017-05-28T06:15:11.749Z,101101
2017-05-28T06:17:40.827Z,101106
2017-05-28T06:22:48.347Z,101099
2017-05-28T06:28:19.010Z,101101
2017-05-28T06:30:48.063Z,101103
2017-05-28T06:33:17.110Z,101105
2017-05-28T06:35:46.512Z,101102
2017-05-28T06:38:15.586Z,101094
2017-05-28T06:40:44.644Z,101104
2017-05-28T06:43:13.728Z,101106
2017-05-28T06:45:42.797Z,101100
2017-05-28T06:48:11.884Z,101094
2017-05-28T06:50:40.897Z,101104
2017-05-28T06:56:10.970Z,101103
2017-05-28T06:58:40.002Z,101100
2017-05-28T07:01:09.019Z,101090
2017-05-28T07:03:38.076Z,101088
2017-05-28T07:09:08.146Z,101094
2017-05-28T07:11:37.174Z,101086
2017-05-28T07:14:06.195Z,101090
2017-05-28T07:16:35.285Z,101081
2017-05-28T07:19:05.258Z,101083
2017-05-28T07:24:36.559Z,101078
2017-05-28T07:30:06.427Z,101073
2017-05-28T07:32:34.657Z,101065
2017-05-28T07:35:08.895Z,101066
2017-05-28T07:37:37.127Z,101062
2017-05-28T07:40:08.470Z,101067
2017-05-28T07:46:07.077Z,101068
2017-05-28T07:52:04.929Z,101068
2017-05-28T08:03:51.464Z,101071
2017-05-28T08:06:19.702Z,101069
2017-05-28T08:09:07.420Z,101067
2017-05-28T08:11:43.514Z,101062
2017-05-28T08:14:11.801Z,101051
2017-05-28T08:16:40.032Z,101051
2017-05-28T08:19:08.662Z,101044
2017-05-28T08:25:07.117Z,101037
2017-05-28T08:27:35.370Z,101039
2017-05-28T08:30:03.621Z,101041
2017-05-28T08:35:32.169Z,101041
2017-05-28T08:38:00.783Z,101041
2017-05-28T08:40:29.847Z,101037
2017-05-28T08:42:58.224Z,101037
2017-05-28T08:48:26.164Z,101032
2017-05-28T08:50:54.419Z,101027
2017-05-28T08:56:22.698Z,101024
2017-05-28T09:02:08.420Z,101024
2017-05-28T09:07:53.575Z,101015
2017-05-28T09:10:21.791Z,101023
2017-05-28T09:15:47.157Z,101011
2017-05-28T09:18:15.439Z,101010
2017-05-28T09:21:08.974Z,101016
2017-05-28T09:24:07.480Z,101012
2017-05-28T09:38:36.171Z,101006
2017-05-28T09:41:10.542Z,100998
2017-05-28T09:43:39.563Z,100998
2017-05-28T09:46:07.845Z,100991
2017-05-28T09:48:36.123Z,100991
2017-05-28T09:51:04.363Z,100988
2017-05-28T09:53:32.580Z,100984
2017-05-28T09:56:00.842Z,100977
2017-05-28T09:58:29.117Z,100987
2017-05-28T10:00:57.356Z,100979
2017-05-28T10:03:25.595Z,100989
2017-05-28T10:05:53.868Z,100982
2017-05-28T10:11:22.993Z,100991
2017-05-28T10:13:51.217Z,100986
2017-05-28T10:16:19.444Z,100989
2017-05-28T10:18:47.709Z,100986
2017-05-28T10:21:15.938Z,100984
2017-05-28T10:23:44.180Z,100990
2017-05-28T10:26:13.339Z,100987
2017-05-28T10:28:41.557Z,100980
2017-05-28T10:31:09.858Z,100982
2017-05-28T10:33:38.097Z,100976
2017-05-28T10:36:10.053Z,100973
2017-05-28T10:38:38.306Z,100973
2017-05-28T10:41:06.529Z,100976
2017-05-28T10:43:34.811Z,100976
2017-05-28T10:46:03.025Z,100966
2017-05-28T10:51:31.363Z,100966
2017-05-28T10:53:59.591Z,100970
2017-05-28T10:56:27.854Z,100964
2017-05-28T10:58:56.126Z,100971
2017-05-28T11:01:24.391Z,100965
2017-05-28T11:03:52.617Z,100966
2017-05-28T11:06:20.898Z,100960
2017-05-28T11:08:49.116Z,100953
2017-05-28T11:11:17.342Z,100954
2017-05-28T11:13:45.620Z,100948
2017-05-28T11:16:13.853Z,100950
2017-05-28T11:18:42.078Z,100950
2017-05-28T11:21:10.335Z,100940
2017-05-28T11:23:38.581Z,100929
2017-05-28T11:26:06.845Z,100943
2017-05-28T11:28:35.838Z,100941
2017-05-28T11:31:10.158Z,100937
2017-05-28T11:33:38.441Z,100933
2017-05-28T11:36:06.689Z,100933
2017-05-28T11:38:34.928Z,100926
2017-05-28T11:41:03.242Z,100924
2017-05-28T11:46:31.803Z,100921
2017-05-28T11:49:09.835Z,100909
2017-05-28T11:51:38.106Z,100915
2017-05-28T11:54:06.348Z,100904
2017-05-28T11:56:34.625Z,100901
2017-05-28T11:59:08.614Z,100899
2017-05-28T12:01:36.913Z,100897
2017-05-28T12:04:05.151Z,100901
2017-05-28T12:06:33.382Z,100882
2017-05-28T12:09:01.696Z,100879
2017-05-28T12:11:29.928Z,100880
2017-05-28T12:13:58.165Z,100887
2017-05-28T12:19:26.290Z,100872
2017-05-28T12:21:54.513Z,100868
2017-05-28T12:24:22.778Z,100866
2017-05-28T12:27:10.483Z,100859
2017-05-28T12:29:38.758Z,100858
2017-05-28T12:32:06.979Z,100860
2017-05-28T12:34:35.223Z,100859
2017-05-28T12:37:03.493Z,100854
2017-05-28T12:39:31.743Z,100859
2017-05-28T12:41:59.971Z,100849
2017-05-28T12:44:28.229Z,100848
2017-05-28T12:46:56.454Z,100845
2017-05-28T12:49:24.724Z,100832
2017-05-28T12:51:53.020Z,100830
2017-05-28T12:57:20.862Z,100820
2017-05-28T12:59:49.086Z,100815
2017-05-28T13:02:17.363Z,100817
2017-05-28T13:04:45.647Z,100814
2017-05-28T13:07:13.880Z,100817
2017-05-28T13:09:42.125Z,100814
2017-05-28T13:12:11.161Z,100809
2017-05-28T13:14:39.389Z,100817
2017-05-28T13:17:07.624Z,100818
2017-05-28T13:19:35.876Z,100812
2017-05-28T13:22:10.689Z,100802
2017-05-28T13:24:38.913Z,100800
2017-05-28T13:27:07.198Z,100802
2017-05-28T13:29:35.431Z,100788
2017-05-28T13:32:03.675Z,100797
2017-05-28T13:34:31.943Z,100795
2017-05-28T13:37:00.186Z,100789
2017-05-28T13:39:28.437Z,100784
2017-05-28T13:41:56.714Z,100784
2017-05-28T13:44:24.938Z,100784
2017-05-28T13:46:53.180Z,100780
2017-05-28T13:52:21.526Z,100768
2017-05-28T13:54:49.791Z,100755
2017-05-28T13:57:18.031Z,100757
2017-05-28T13:59:46.301Z,100771
2017-05-28T14:02:14.531Z,100762
2017-05-28T14:04:42.759Z,100754
2017-05-28T14:10:10.476Z,100747
2017-05-28T14:12:38.694Z,100742
2017-05-28T14:15:06.955Z,100740
2017-05-28T14:20:37.238Z,100744
2017-05-28T14:23:05.528Z,100732
2017-05-28T14:25:33.753Z,100737
2017-05-28T14:28:01.978Z,100739
2017-05-28T14:30:30.268Z,100739
2017-05-28T14:32:58.486Z,100741
2017-05-28T14:35:26.728Z,100737
2017-05-28T14:37:55.000Z,100735
2017-05-28T14:40:23.226Z,100727
2017-05-28T14:42:51.448Z,100730
2017-05-28T14:48:19.968Z,100726
2017-05-28T14:50:48.190Z,100717
2017-05-28T14:53:16.479Z,100723
2017-05-28T14:56:08.001Z,100712
2017-05-28T14:58:36.290Z,100717
2017-05-28T15:01:11.061Z,100717
2017-05-28T15:03:39.347Z,100703
2017-05-28T15:06:07.580Z,100694
2017-05-28T15:08:35.806Z,100701
2017-05-28T15:11:04.084Z,100698
2017-05-28T15:13:32.320Z,100696
2017-05-28T15:16:00.594Z,100696
2017-05-28T15:18:28.819Z,100700
2017-05-28T15:20:57.059Z,100687
2017-05-28T15:23:25.386Z,100696
2017-05-28T15:25:53.632Z,100694
2017-05-28T15:28:21.855Z,100691
2017-05-28T15:30:50.133Z,100684
2017-05-28T15:33:18.373Z,100689
2017-05-28T15:35:46.621Z,100675
2017-05-28T15:38:14.892Z,100679
2017-05-28T15:40:43.912Z,100674
2017-05-28T15:43:12.182Z,100672
2017-05-28T15:45:40.414Z,100674
2017-05-28T15:48:08.634Z,100668
2017-05-28T15:50:36.928Z,100673
2017-05-28T15:53:05.930Z,100661
2017-05-28T15:55:34.149Z,100656
2017-05-28T15:58:02.418Z,100650
2017-05-28T16:00:30.666Z,100644
2017-05-28T16:02:58.915Z,100637
2017-05-28T16:05:27.225Z,100630
2017-05-28T16:07:55.450Z,100608
2017-05-28T16:10:23.670Z,100100
2017-05-28T16:12:51.976Z,100079
2017-05-28T16:15:20.201Z,100010
2017-05-28T16:17:48.434Z,100078
2017-05-28T16:20:16.718Z,100135
2017-05-28T16:23:07.952Z,100289
2017-05-28T16:25:36.227Z,100606
2017-05-28T16:28:10.814Z,100607
2017-05-28T16:30:39.100Z,100615
2017-05-28T16:36:06.980Z,100604
2017-05-28T16:38:35.224Z,100606
2017-05-28T16:41:03.449Z,100597
2017-05-28T16:43:31.718Z,100606
2017-05-28T16:45:59.958Z,100605
2017-05-28T16:48:28.187Z,100603
2017-05-28T16:50:56.458Z,100597
2017-05-28T16:53:24.695Z,100594
2017-05-28T16:56:06.063Z,100591
2017-05-28T16:58:34.280Z,100587
2017-05-28T17:01:02.544Z,100587
2017-05-28T17:03:30.792Z,100578
2017-05-28T17:06:08.854Z,100578
2017-05-28T17:08:37.104Z,100575
2017-05-28T17:11:05.344Z,100576
2017-05-28T17:13:33.607Z,100572
2017-05-28T17:16:01.831Z,100568
2017-05-28T17:18:30.058Z,100575
2017-05-28T17:20:59.549Z,100574
2017-05-28T17:23:28.551Z,100567
2017-05-28T17:26:09.510Z,100573
2017-05-28T17:28:37.793Z,100575
2017-05-28T17:31:06.021Z,100568
2017-05-28T17:33:40.845Z,100566
2017-05-28T17:36:09.078Z,100569
2017-05-28T17:38:43.997Z,100559
2017-05-28T17:41:12.290Z,100547
2017-05-28T17:43:40.521Z,100547
2017-05-28T17:46:09.047Z,100542
2017-05-28T17:48:58.027Z,100535
2017-05-28T17:51:26.278Z,100523
2017-05-28T17:53:54.512Z,100512
2017-05-28T17:56:23.559Z,100248
2017-05-28T17:58:51.776Z,100151
2017-05-28T18:01:20.002Z,100133
2017-05-28T18:03:48.270Z,100354
2017-05-28T18:06:16.509Z,100421
2017-05-28T18:08:44.741Z,100318
2017-05-28T18:11:12.993Z,100483
2017-05-28T18:13:41.225Z,100545
2017-05-28T18:19:10.354Z,100549
2017-05-28T18:21:38.592Z,100544
2017-05-28T18:24:06.818Z,100545
2017-05-28T18:26:35.097Z,100543
2017-05-28T18:29:09.574Z,100545
2017-05-28T18:31:37.887Z,100542
2017-05-28T18:34:09.249Z,100552
2017-05-28T18:36:37.545Z,100547
2017-05-28T18:39:05.766Z,100548
2017-05-28T18:41:33.999Z,100539
2017-05-28T18:44:09.042Z,100547
2017-05-28T18:46:37.260Z,100547
2017-05-28T18:49:05.549Z,100554
2017-05-28T18:51:33.784Z,100557
2017-05-28T18:54:02.010Z,100548
2017-05-28T18:56:31.514Z,100562
2017-05-28T18:59:09.303Z,100552
2017-05-28T19:01:37.606Z,100553
2017-05-28T19:04:05.851Z,100556
2017-05-28T19:06:34.081Z,100564
2017-05-28T19:09:09.322Z,100560
2017-05-28T19:14:37.692Z,100567
2017-05-28T19:17:09.222Z,100568
2017-05-28T19:22:37.494Z,100570
2017-05-28T19:25:05.740Z,100576
2017-05-28T19:27:33.980Z,100571
2017-05-28T19:30:02.261Z,100569
2017-05-28T19:32:30.517Z,100580
2017-05-28T19:35:11.282Z,100573
2017-05-28T19:37:39.505Z,100575
2017-05-28T19:40:07.830Z,100570
2017-05-28T19:42:36.110Z,100569
2017-05-28T19:45:10.243Z,100564
2017-05-28T19:47:39.298Z,100568
2017-05-28T19:50:10.898Z,100566
2017-05-28T19:52:40.728Z,100568
2017-05-28T19:58:09.632Z,100563
2017-05-28T20:00:37.997Z,100555
2017-05-28T20:03:06.241Z,100552
2017-05-28T20:05:34.519Z,100555
2017-05-28T20:11:02.780Z,100566
2017-05-28T20:13:31.018Z,100554
2017-05-28T20:15:59.246Z,100551
2017-05-28T20:18:27.536Z,100554
2017-05-28T20:21:08.686Z,100547
2017-05-28T20:26:36.418Z,100542
2017-05-28T20:29:10.582Z,100546
2017-05-28T20:31:38.859Z,100547
2017-05-28T20:34:07.111Z,100547
2017-05-28T20:36:35.337Z,100537
2017-05-28T20:39:03.620Z,100539
2017-05-28T20:44:32.162Z,100530
2017-05-28T20:47:00.388Z,100532
2017-05-28T20:49:28.634Z,100532
2017-05-28T20:51:56.974Z,100539
2017-05-28T20:57:25.446Z,100540
2017-05-28T20:59:53.674Z,100527
2017-05-28T21:02:21.921Z,100534
2017-05-28T21:10:49.926Z,100529
2017-05-28T21:13:18.183Z,100528
2017-05-28T21:15:46.416Z,100535
2017-05-28T21:18:14.714Z,100531
2017-05-28T21:20:42.944Z,100525
2017-05-28T21:23:11.185Z,100524
2017-05-28T21:25:39.548Z,100527
2017-05-28T21:28:07.771Z,100524
2017-05-28T21:30:36.013Z,100524
2017-05-28T21:36:04.650Z,100522
2017-05-28T21:38:32.890Z,100514
2017-05-28T21:41:01.118Z,100510
2017-05-28T21:43:29.503Z,100509
2017-05-28T21:45:57.719Z,100514
2017-05-28T21:48:25.943Z,100514
2017-05-28T21:53:54.169Z,100514
2017-05-28T21:56:22.394Z,100505
2017-05-28T21:58:50.618Z,100508
2017-05-28T22:01:19.006Z,100509
2017-05-28T22:03:47.228Z,100516
2017-05-28T22:06:15.453Z,100513
2017-05-28T22:08:43.735Z,100505
2017-05-28T22:11:11.959Z,100502
2017-05-28T22:13:40.954Z,100503
2017-05-28T22:16:09.218Z,100498
2017-05-28T22:18:37.475Z,100506
2017-05-28T22:21:05.711Z,100509
2017-05-28T22:26:33.923Z,100498
2017-05-28T22:29:09.934Z,100494
2017-05-28T22:34:15.835Z,100496
2017-05-28T22:36:44.101Z,100495
2017-05-28T22:39:12.325Z,100491
2017-05-28T22:41:40.553Z,100498
2017-05-28T22:44:08.818Z,100489
2017-05-28T22:46:37.050Z,100482
2017-05-28T22:49:05.280Z,100485
2017-05-28T22:51:33.559Z,100484
2017-05-28T22:54:01.781Z,100477
2017-05-28T22:59:30.011Z,100486
2017-05-28T23:01:58.247Z,100482
2017-05-28T23:04:26.473Z,100486
2017-05-28T23:06:54.737Z,100480
2017-05-28T23:09:22.957Z,100478
2017-05-28T23:12:10.888Z,100472
2017-05-28T23:15:08.713Z,100471
2017-05-28T23:17:36.982Z,100472
2017-05-28T23:20:11.145Z,100465
2017-05-28T23:22:39.581Z,100463
2017-05-28T23:25:10.729Z,100457
2017-05-28T23:28:08.828Z,100461
2017-05-28T23:30:37.064Z,100451
2017-05-28T23:33:08.847Z,100449
2017-05-28T23:35:37.093Z,100455
2017-05-28T23:38:05.319Z,100436
2017-05-28T23:40:33.595Z,100445
2017-05-28T23:43:09.187Z,100444
2017-05-28T23:45:37.458Z,100444
2017-05-28T23:48:05.677Z,100436
2017-05-28T23:50:33.905Z,100430
2017-05-28T23:53:09.429Z,100434
2017-05-28T23:55:37.675Z,100434
2017-05-28T23:58:05.917Z,100428
